Impacts TAF Board
For situational awareness. Not to be used for flight planning purposes.
IDs:

KGEG - Spokane Intl, WA, US

Issued at 1738 UTC 22 Sep 2020
Updated at 2025 UTC 22 Sep 2020
Potential Impact None Slight Moderate High
Time1953Z 22/21Z 22/22Z 22/23Z 23/00Z 23/01Z 23/02Z 23/03Z 23/04Z 23/05Z 23/06Z 23/07Z 23/08Z 23/09Z>>
Type OBS PRVL PRVL PRVL PRVL PRVL PRVL PRVL PRVL PRVL PRVL PRVL PRVL PRVL
VIS 10 >6 >6 >6 >6 >6 >6 >6 >6 >6 >6 >6 >6 >6
CIG -- 200 200 200 200 200 -- -- -- -- -- 120 120 120
Cover SCT BKN BKN BKN BKN BKN SCT SCT SCT SCT SCT BKN BKN BKN
FltCat VFR VFR VFR VFR VFR VFR VFR VFR VFR VFR VFR VFR VFR VFR
WX -- -- -- -- -- -- -- -- -- -- -- -- -- --
WDir 220 210 210 210 210 210 200 200 200 200 200 180 180 180
WSpd 7 9 9 9 9 9 5 5 5 5 5 7 7 7
WGst -- -- -- -- -- -- -- -- -- -- -- -- -- --
Raw TAF
KGEG 221738Z 2218/2318 21009KT P6SM FEW120 FEW150 BKN200
  FM230200 20005KT P6SM SCT200
  FM230700 18007KT P6SM BKN120


Raw METAR
KGEG 221953Z 22007KT 180V250 10SM FEW050 FEW080 SCT120 21/07 A3000 RMK AO2 SLP148 T02060072
KGEG 221853Z 20006KT 10SM FEW080 SCT120 SCT180 19/07 A3001 RMK AO2 SLP152 T01940072
KGEG 221753Z 22006KT 10SM SCT080 SCT120 BKN180 18/07 A3002 RMK AO2 SLP155 T01780067 10178 20117 50008

METAR Board
Radar Display
Forecast Discussion
For situational awareness. Not to be used for flight planning purposes.